Latest Weather Observations for Kyabram

IDV60801

Issued at 11:02 am EDT Thursday 23 January 2020 (issued every 10 minutes, with the page automatically refreshed every 10 minutes)

About weather observations | Map of weather stations | Latest weather observations for VIC | Other Formats
Station Details ID: 080091 Name: KYABRAM Lat: -36.34 Lon: 145.06 Height: 105.0 m
Data from the previous 72 hours. | See also: Recent months at Kyabram
Date/Time
EDT
Temp
°C
App
Temp
°C
Dew
Point
°C
Rel
Hum
%
Delta-T
°C
Wind Press
QNH
hPa
Press
MSL
hPa
Rain since
9am
mm
Dir  Spd
km/h
Gust
km/h
Spd
kts
Gust
kts
23/11:00am 18.6 16.5 13.5 72 2.9 NW 17 22 9 12 - - 0.4
23/10:30am 18.1 15.3 14.2 78 2.2 NNW 22 30 12 16 - - 0.4
23/10:00am 17.4 15.4 14.9 85 1.5 NNW 19 26 10 14 - - 0.4
23/09:30am 16.7 15.9 16.2 97 0.3 N 15 24 8 13 - - 0.4
23/09:00am 16.5 16.4 15.9 96 0.4 N 11 15 6 8 - - 7.2
23/08:30am 16.3 16.2 16.0 98 0.2 N 11 15 6 8 - - 7.2
23/08:00am 16.1 16.6 15.6 97 0.3 N 7 11 4 6 - - 7.2
23/07:30am 16.1 16.7 15.3 95 0.5 NNW 6 13 3 7 - - 7.0
23/07:00am 16.1 18.1 15.9 99 0.1 CALM 0 0 0 0 - - 6.6
23/06:30am 16.0 17.9 15.8 99 0.1 CALM 0 0 0 0 - - 6.0
23/06:00am 16.2 18.2 16.0 99 0.1 CALM 0 0 0 0 - - 5.0
23/05:30am 16.1 16.9 15.8 98 0.2 W 6 11 3 6 - - 4.4
23/05:00am 16.6 17.4 16.3 98 0.2 SW 7 44 4 24 - - 2.6
23/04:30am 17.4 17.3 16.1 92 0.8 SW 11 19 6 10 - - 0.2
23/04:00am 18.0 18.9 16.7 92 0.8 WNW 7 13 4 7 - - 0.0
23/03:30am 18.1 18.0 16.1 88 1.2 WSW 11 17 6 9 - - 0.0
23/03:00am 18.3 18.5 15.7 85 1.5 SW 9 15 5 8 - - 0.0
23/02:30am 18.4 17.7 15.3 82 1.8 SSW 13 24 7 13 - - 0.0
23/02:00am 19.4 18.6 15.1 76 2.5 SSW 13 30 7 16 - - 0.0
23/01:30am 20.6 19.2 14.5 68 3.6 SW 15 28 8 15 - - 0.0
23/01:00am 22.1 23.4 14.0 60 4.7 CALM 0 0 0 0 - - 0.0
23/12:30am 22.5 21.9 13.6 57 5.2 SW 9 22 5 12 - - 0.0
23/12:00am 24.5 25.1 11.8 45 7.2 CALM 0 0 0 0 - - 0.0
 
Date/Time
EDT
Temp
°C
App
Temp
°C
Dew
Point
°C
Rel
Hum
%
Delta-T
°C
Wind Press
QNH
hPa
Press
MSL
hPa
Rain since
9am
mm
Dir  Spd
km/h
Gust
km/h
Spd
kts
Gust
kts
22/11:30pm 25.8 23.9 10.4 38 8.6 WSW 11 20 6 11 - - 0.0
22/11:00pm 27.1 24.8 10.3 35 9.5 NW 13 22 7 12 - - 0.0
22/10:30pm 29.6 23.6 10.7 31 10.8 NNW 33 54 18 29 - - 0.0
22/10:27pm 29.4 22.6 10.5 31 10.8 NNW 37 56 20 30 - - 0.0
22/10:21pm 29.3 21.4 10.9 32 10.6 NW 43 61 23 33 - - 0.0
22/10:07pm 29.9 20.8 9.9 29 11.3 NNW 48 78 26 42 - - 0.0
22/10:05pm 30.4 21.7 9.8 28 11.7 NNW 46 78 25 42 - - 0.0
22/10:00pm 31.3 23.4 9.5 26 12.4 NNW 41 67 22 36 - - 0.0
22/09:38pm 32.3 25.2 7.9 22 13.5 NNW 35 57 19 31 - - 0.0
22/09:30pm 32.2 25.0 7.8 22 13.5 NNW 35 50 19 27 - - 0.0
22/09:04pm 32.3 23.1 7.9 22 13.5 N 46 85 25 46 - - 0.0
22/09:00pm 31.6 24.1 8.0 23 13.1 N 37 57 20 31 - - 0.0
22/08:56pm 31.5 24.7 7.9 23 13.0 NNE 33 59 18 32 - - 0.0
22/08:50pm 30.0 25.4 9.5 28 11.5 NNE 24 59 13 32 - - 0.0
22/08:30pm 28.0 25.8 10.7 34 9.8 NE 13 20 7 11 - - 0.0
22/08:00pm 27.6 25.9 11.2 36 9.4 NE 11 20 6 11 - - 0.0
22/07:30pm 28.3 25.3 10.5 33 10.1 NNE 17 28 9 15 - - 0.0
22/07:00pm 27.7 24.8 10.9 35 9.6 NNE 17 26 9 14 - - 0.0
22/06:30pm 27.6 24.6 10.8 35 9.6 NNE 17 24 9 13 - - 0.0
22/06:04pm 28.3 24.7 10.5 33 10.1 NNW 20 46 11 25 - - 0.0
22/06:00pm 28.4 26.1 10.6 33 10.1 N 13 28 7 15 - - 0.0
22/05:30pm 29.4 27.2 9.5 29 11.2 WNW 11 20 6 11 - - 0.0
22/05:03pm 31.0 26.8 7.5 23 12.9 NW 19 52 10 28 - - 0.0
22/05:02pm 31.4 27.5 7.1 22 13.3 NW 17 52 9 28 - - 0.0
22/05:00pm 31.8 28.4 6.1 20 13.8 NW 13 33 7 18 - - 0.0
22/04:30pm 33.0 28.6 4.7 17 15.0 N 17 37 9 20 - - 0.0
22/04:00pm 32.5 28.5 5.1 18 14.5 NW 15 26 8 14 - - 0.0
22/03:30pm 32.9 27.1 4.6 17 14.9 NNW 24 35 13 19 - - 0.0
22/03:02pm 33.2 26.4 4.9 17 15.0 N 30 52 16 28 - - 0.0
22/03:00pm 33.1 26.2 4.8 17 15.0 N 30 44 16 24 - - 0.0
22/02:30pm 34.4 27.7 5.8 17 15.5 N 30 52 16 28 - - 0.0
22/02:05pm 32.9 25.9 6.2 19 14.5 N 32 50 17 27 - - 0.0
22/02:00pm 32.9 26.9 7.0 20 14.2 N 28 43 15 23 - - 0.0
22/01:52pm 33.8 27.6 7.7 20 14.5 N 30 48 16 26 - - 0.0
22/01:30pm 33.7 27.2 8.3 21 14.3 N 32 46 17 25 - - 0.0
22/01:06pm 33.3 27.7 8.7 22 13.9 N 28 46 15 25 - - 0.0
22/01:00pm 33.2 27.7 9.3 23 13.6 N 28 44 15 24 - - 0.0
22/12:43pm 32.6 26.3 8.8 23 13.4 N 32 56 17 30 - - 0.0
22/12:30pm 32.6 27.3 10.0 25 13.0 N 28 43 15 23 - - 0.0
22/12:27pm 32.3 26.6 9.8 25 12.9 N 30 48 16 26 - - 0.0
22/12:00pm 31.2 26.3 10.0 27 12.1 N 26 43 14 23 - - 0.0
22/11:30am 30.4 26.6 12.3 33 10.7 NNE 24 35 13 19 - - 0.0
22/11:00am 28.3 25.2 12.2 37 9.4 NNE 20 39 11 21 - - 0.0
22/10:30am 27.0 23.6 13.7 44 7.9 NNE 24 41 13 22 - - 0.0
22/10:00am 25.9 22.3 14.1 48 7.0 NNE 26 39 14 21 - - 0.0
22/09:30am 23.8 21.2 13.9 54 5.8 NNE 20 35 11 19 - - 0.0
22/09:00am 22.5 19.7 14.4 60 4.8 NNE 22 35 12 19 - - 0.0
22/08:30am 21.5 18.7 14.2 63 4.3 NNE 22 32 12 17 - - 0.0
22/08:00am 20.8 18.5 14.0 65 4.0 NNE 19 28 10 15 - - 0.0
22/07:30am 19.1 17.9 14.1 73 2.9 NNE 13 20 7 11 - - 0.0
22/07:00am 17.6 16.7 13.7 78 2.2 NNE 11 17 6 9 - - 0.0
22/06:30am 16.7 15.9 13.0 79 2.1 NE 9 13 5 7 - - 0.0
22/06:00am 16.7 16.2 12.7 77 2.2 NE 7 9 4 5 - - 0.0
22/05:30am 18.0 16.8 12.7 71 3.0 NNE 11 17 6 9 - - 0.0
22/05:00am 18.1 16.7 12.1 68 3.3 NNE 11 17 6 9 - - 0.0
22/04:30am 17.2 16.1 11.9 71 2.9 NNE 9 13 5 7 - - 0.0
22/04:00am 16.9 16.1 11.8 72 2.8 NNE 7 11 4 6 - - 0.0
22/03:30am 16.9 16.1 11.6 71 2.9 NNE 7 9 4 5 - - 0.0
22/03:00am 17.1 15.9 11.6 70 3.0 NNE 9 11 5 6 - - 0.0
22/02:30am 17.0 17.4 11.1 68 3.2 CALM 0 0 0 0 - - 0.0
22/02:00am 16.9 17.4 11.6 71 2.9 CALM 0 0 0 0 - - 0.0
22/01:30am 16.7 17.1 11.4 71 2.9 CALM 0 0 0 0 - - 0.0
22/01:00am 17.3 18.1 12.4 73 2.7 CALM 0 0 0 0 - - 0.0
22/12:30am 17.0 17.8 12.5 75 2.5 CALM 0 0 0 0 - - 0.0
22/12:00am 17.1 18.0 13.0 77 2.3 CALM 0 0 0 0 - - 0.0
 
Date/Time
EDT
Temp
°C
App
Temp
°C
Dew
Point
°C
Rel
Hum
%
Delta-T
°C
Wind Press
QNH
hPa
Press
MSL
hPa
Rain since
9am
mm
Dir  Spd
km/h
Gust
km/h
Spd
kts
Gust
kts
21/11:30pm 17.6 18.0 11.4 67 3.4 CALM 0 0 0 0 - - 0.0
21/11:00pm 18.1 19.0 12.8 71 3.0 CALM 0 0 0 0 - - 0.0
21/10:30pm 18.4 18.8 11.2 63 3.9 CALM 0 0 0 0 - - 0.0
21/10:00pm 19.0 19.4 11.1 60 4.3 CALM 0 0 0 0 - - 0.0
21/09:30pm 20.0 20.3 11.0 56 4.9 CALM 0 0 0 0 - - 0.0
21/09:00pm 21.6 21.8 10.7 50 6.0 CALM 0 0 0 0 - - 0.0
21/08:30pm 23.4 22.7 8.7 39 7.9 NW 2 7 1 4 - - 0.0
21/08:00pm 25.0 22.0 7.6 33 9.2 NW 13 20 7 11 - - 0.0
21/07:30pm 26.3 24.3 6.9 29 10.3 NW 7 13 4 7 - - 0.0
21/07:00pm 26.6 23.6 6.1 27 10.7 NW 11 19 6 10 - - 0.0
21/06:30pm 26.8 24.1 7.3 29 10.4 NW 11 20 6 11 - - 0.0
21/06:00pm 26.3 23.3 5.8 27 10.6 NW 11 24 6 13 - - 0.0
21/05:30pm 27.0 24.5 8.0 30 10.3 NW 11 22 6 12 - - 0.0
21/05:00pm 27.2 24.3 8.1 30 10.4 NW 13 20 7 11 - - 0.0
21/04:30pm 26.2 23.3 8.2 32 9.7 NNW 13 20 7 11 - - 0.0
21/04:00pm 25.4 22.8 9.3 36 8.8 NNW 13 24 7 13 - - 0.0
21/03:30pm 25.4 24.0 9.7 37 8.7 WNW 7 17 4 9 - - 0.0
21/03:00pm 24.8 22.5 9.1 37 8.6 W 11 22 6 12 - - 0.0
21/02:30pm 24.8 23.0 11.0 42 7.8 WNW 11 26 6 14 - - 0.0
21/02:00pm 24.5 23.1 9.6 39 8.2 W 7 15 4 8 - - 0.0
21/01:30pm 23.2 22.4 10.9 46 6.9 NNE 6 13 3 7 - - 0.0
21/01:00pm 21.9 20.4 10.4 48 6.3 WSW 9 13 5 7 - - 0.0
21/12:30pm 21.3 20.5 11.6 54 5.4 NW 7 11 4 6 - - 0.0
21/12:00pm 20.0 18.7 11.2 57 4.9 SW 9 13 5 7 - - 0.0
21/11:30am 20.7 20.4 13.4 63 4.2 SSW 7 17 4 9 - - 0.0
21/11:00am 19.3 17.7 11.6 61 4.3 SSW 11 17 6 9 - - 0.0
21/10:30am 17.7 15.7 11.5 67 3.4 SSW 13 20 7 11 - - 0.0
21/10:00am 17.6 15.9 12.3 71 2.9 S 13 20 7 11 - - 0.0
21/09:30am 16.9 14.6 11.8 72 2.8 SSW 15 24 8 13 - - 0.0
21/09:00am 15.9 13.1 11.5 75 2.4 SSW 17 22 9 12 - - 36.4
21/08:30am 15.7 13.5 12.1 79 2.0 SSW 15 22 8 12 - - 36.4
21/08:00am 14.8 13.2 11.6 81 1.7 SSW 11 19 6 10 - - 36.4
21/07:30am 14.6 12.3 11.7 83 1.6 SSW 15 20 8 11 - - 36.4
21/07:00am 14.3 11.9 11.5 83 1.5 SSW 15 19 8 10 - - 36.4
21/06:30am 14.2 12.2 11.4 83 1.5 SSW 13 19 7 10 - - 36.4
21/06:00am 14.3 12.3 11.5 83 1.5 SSW 13 19 7 10 - - 36.4
21/05:30am 14.5 12.1 11.3 81 1.7 SSW 15 22 8 12 - - 36.4
21/05:00am 14.3 11.9 11.3 82 1.6 SSW 15 19 8 10 - - 36.4
21/04:30am 14.4 11.6 11.2 81 1.7 SSW 17 22 9 12 - - 36.4
21/04:00am 14.6 11.5 11.7 83 1.6 SSW 19 26 10 14 - - 36.4
21/03:30am 14.9 12.3 12.0 83 1.6 S 17 28 9 15 - - 36.4
21/03:00am 15.4 12.1 12.7 84 1.5 SSW 22 32 12 17 - - 36.4
21/02:30am 15.7 13.9 13.4 86 1.3 SSW 15 22 8 12 - - 36.4
21/02:00am 15.7 15.1 13.5 87 1.2 SW 9 15 5 8 - - 36.4
21/01:30am 15.6 14.2 13.3 86 1.3 SSW 13 19 7 10 - - 36.4
21/01:00am 15.8 14.4 13.3 85 1.4 SSW 13 22 7 12 - - 36.4
21/12:30am 16.3 13.7 13.2 82 1.7 SSW 19 26 10 14 - - 36.4
21/12:00am 16.5 14.8 13.6 83 1.6 SSW 15 22 8 12 - - 36.4
 
Date/Time
EDT
Temp
°C
App
Temp
°C
Dew
Point
°C
Rel
Hum
%
Delta-T
°C
Wind Press
QNH
hPa
Press
MSL
hPa
Rain since
9am
mm
Dir  Spd
km/h
Gust
km/h
Spd
kts
Gust
kts
20/11:30pm 16.7 15.6 14.2 85 1.4 SSW 13 20 7 11 - - 36.4
20/11:00pm 16.7 16.8 14.5 87 1.3 SW 7 17 4 9 - - 36.4
20/10:30pm 17.0 16.4 14.5 85 1.4 SW 11 20 6 11 - - 36.4
20/10:00pm 17.5 17.0 15.0 85 1.5 SW 11 19 6 10 - - 36.4
20/09:30pm 17.5 17.5 15.1 86 1.4 SW 9 20 5 11 - - 36.4
20/09:00pm 18.3 16.6 14.8 80 2.0 SSW 17 24 9 13 - - 36.4
20/08:30pm 18.2 17.2 15.5 84 1.6 SSW 15 24 8 13 - - 36.4
20/08:00pm 17.9 19.0 17.9 100 0.0 WSW 9 17 5 9 - - 36.4
20/07:30pm 17.8 19.8 17.8 100 0.0 WSW 4 9 2 5 - - 36.2
20/07:00pm 17.7 19.1 17.7 100 0.0 WNW 7 11 4 6 - - 35.8
20/06:30pm 17.4 19.2 17.4 100 0.0 WNW 4 11 2 6 - - 35.8
20/06:00pm 17.1 17.8 17.1 100 0.0 SW 9 15 5 8 - - 32.8
20/05:30pm 17.2 18.3 17.0 99 0.1 NNW 7 17 4 9 - - 24.6
20/05:00pm 17.3 16.9 16.2 93 0.7 SSW 13 24 7 13 - - 15.6
20/04:30pm 20.4 19.9 16.0 76 2.6 NNW 13 20 7 11 - - 6.0
20/04:00pm 20.9 20.6 15.4 71 3.3 NW 11 19 6 10 - - 5.8
20/03:30pm 20.6 20.0 15.6 73 3.0 NW 13 20 7 11 - - 5.8
20/03:00pm 21.6 22.2 16.8 74 2.9 WNW 9 15 5 8 - - 5.8
20/02:30pm 21.6 20.8 16.1 71 3.3 NNW 15 20 8 11 - - 5.8
20/02:00pm 22.2 23.6 15.5 66 4.0 NNW 2 9 1 5 - - 5.8
20/01:30pm 21.9 23.3 15.3 66 3.9 ESE 2 9 1 5 - - 5.8
20/01:00pm 20.7 21.4 16.1 75 2.8 SE 7 15 4 8 - - 5.8
20/12:30pm 20.3 21.1 14.9 71 3.2 E 4 11 2 6 - - 5.8
20/12:00pm 19.5 22.4 18.2 92 0.8 CALM 0 0 0 0 - - 5.8
20/11:30am 17.8 18.7 16.7 93 0.7 NE 7 9 4 5 - - 5.8

Other formats

Comma delimited format used in spreadsheet applications
http://www.bom.gov.au/fwo/IDV60801/IDV60801.95833.axf

JavaScript Object Notation format (JSON) in row-major order
http://www.bom.gov.au/fwo/IDV60801/IDV60801.95833.json

Data quality

Most of these data are generated automatically and are frequently updated. Quality checks on data are not normally performed. It is possible for incorrect values to appear. Refer to information at About Latest Weather Observations and please check the disclaimer before using these data.